sensor_id;sensor_type;location;lat;lon;timestamp;P1;durP1;ratioP1;P2;durP2;ratioP2
41466;SDS011;72625;53.700;19.958;2023-10-31T00:01:36;5.80;;;5.20;;
41466;SDS011;72625;53.700;19.958;2023-10-31T00:06:40;6.40;;;5.90;;
41466;SDS011;72625;53.700;19.958;2023-10-31T00:11:43;6.90;;;6.20;;
41466;SDS011;72625;53.700;19.958;2023-10-31T00:16:47;6.90;;;6.40;;
41466;SDS011;72625;53.700;19.958;2023-10-31T00:26:54;6.80;;;6.10;;
41466;SDS011;72625;53.700;19.958;2023-10-31T00:31:57;5.60;;;5.10;;
41466;SDS011;72625;53.700;19.958;2023-10-31T00:37:01;7.40;;;6.50;;
41466;SDS011;72625;53.700;19.958;2023-10-31T00:42:04;7.70;;;6.30;;
41466;SDS011;72625;53.700;19.958;2023-10-31T00:47:07;7.80;;;7.00;;
41466;SDS011;72625;53.700;19.958;2023-10-31T00:52:10;11.80;;;7.40;;
41466;SDS011;72625;53.700;19.958;2023-10-31T00:57:14;7.20;;;6.50;;
41466;SDS011;72625;53.700;19.958;2023-10-31T01:02:17;6.70;;;6.10;;
41466;SDS011;72625;53.700;19.958;2023-10-31T01:07:20;7.70;;;7.00;;
41466;SDS011;72625;53.700;19.958;2023-10-31T01:12:23;6.40;;;5.90;;
41466;SDS011;72625;53.700;19.958;2023-10-31T01:17:27;7.70;;;6.90;;
41466;SDS011;72625;53.700;19.958;2023-10-31T01:22:30;7.80;;;7.10;;
41466;SDS011;72625;53.700;19.958;2023-10-31T01:27:33;8.60;;;7.50;;
41466;SDS011;72625;53.700;19.958;2023-10-31T01:32:36;7.70;;;7.10;;
41466;SDS011;72625;53.700;19.958;2023-10-31T01:37:39;7.50;;;6.90;;
41466;SDS011;72625;53.700;19.958;2023-10-31T01:42:43;6.50;;;5.90;;
41466;SDS011;72625;53.700;19.958;2023-10-31T01:47:46;5.70;;;5.20;;
41466;SDS011;72625;53.700;19.958;2023-10-31T01:52:52;6.50;;;5.90;;
41466;SDS011;72625;53.700;19.958;2023-10-31T01:57:56;5.90;;;4.60;;
41466;SDS011;72625;53.700;19.958;2023-10-31T02:02:59;9.50;;;8.70;;
41466;SDS011;72625;53.700;19.958;2023-10-31T02:08:05;6.50;;;5.90;;
41466;SDS011;72625;53.700;19.958;2023-10-31T02:13:11;7.20;;;6.20;;
41466;SDS011;72625;53.700;19.958;2023-10-31T02:18:15;7.50;;;6.70;;
41466;SDS011;72625;53.700;19.958;2023-10-31T02:23:18;7.30;;;6.70;;
41466;SDS011;72625;53.700;19.958;2023-10-31T02:28:22;6.90;;;6.40;;
41466;SDS011;72625;53.700;19.958;2023-10-31T02:33:25;7.50;;;6.90;;
41466;SDS011;72625;53.700;19.958;2023-10-31T02:38:28;7.70;;;7.00;;
41466;SDS011;72625;53.700;19.958;2023-10-31T02:43:32;9.30;;;8.40;;
41466;SDS011;72625;53.700;19.958;2023-10-31T02:48:35;7.90;;;7.30;;
41466;SDS011;72625;53.700;19.958;2023-10-31T02:53:42;8.90;;;8.10;;
41466;SDS011;72625;53.700;19.958;2023-10-31T02:58:45;9.00;;;8.20;;
41466;SDS011;72625;53.700;19.958;2023-10-31T03:03:48;8.20;;;7.50;;
41466;SDS011;72625;53.700;19.958;2023-10-31T03:08:52;9.50;;;8.10;;
41466;SDS011;72625;53.700;19.958;2023-10-31T03:13:55;9.60;;;8.40;;
41466;SDS011;72625;53.700;19.958;2023-10-31T03:19:02;8.80;;;8.00;;
41466;SDS011;72625;53.700;19.958;2023-10-31T03:24:05;9.40;;;8.50;;
41466;SDS011;72625;53.700;19.958;2023-10-31T03:29:08;7.30;;;6.60;;
41466;SDS011;72625;53.700;19.958;2023-10-31T03:34:12;8.00;;;7.30;;
41466;SDS011;72625;53.700;19.958;2023-10-31T03:39:15;7.50;;;6.80;;
41466;SDS011;72625;53.700;19.958;2023-10-31T03:44:18;9.30;;;8.40;;
41466;SDS011;72625;53.700;19.958;2023-10-31T03:49:21;8.10;;;7.40;;
41466;SDS011;72625;53.700;19.958;2023-10-31T03:54:25;7.90;;;7.20;;
41466;SDS011;72625;53.700;19.958;2023-10-31T03:59:28;7.20;;;6.60;;
41466;SDS011;72625;53.700;19.958;2023-10-31T04:04:31;7.00;;;6.20;;
41466;SDS011;72625;53.700;19.958;2023-10-31T04:09:34;7.70;;;7.10;;
41466;SDS011;72625;53.700;19.958;2023-10-31T04:14:38;9.70;;;8.70;;
41466;SDS011;72625;53.700;19.958;2023-10-31T04:19:41;7.50;;;6.80;;
41466;SDS011;72625;53.700;19.958;2023-10-31T04:24:44;7.50;;;7.00;;
41466;SDS011;72625;53.700;19.958;2023-10-31T04:29:48;8.30;;;7.50;;
41466;SDS011;72625;53.700;19.958;2023-10-31T04:34:51;7.50;;;6.90;;
41466;SDS011;72625;53.700;19.958;2023-10-31T04:39:54;8.60;;;7.80;;
41466;SDS011;72625;53.700;19.958;2023-10-31T04:44:57;7.70;;;7.00;;
41466;SDS011;72625;53.700;19.958;2023-10-31T04:50:01;7.50;;;6.90;;
41466;SDS011;72625;53.700;19.958;2023-10-31T04:55:04;6.60;;;6.10;;
41466;SDS011;72625;53.700;19.958;2023-10-31T05:00:08;7.80;;;7.00;;
41466;SDS011;72625;53.700;19.958;2023-10-31T05:10:15;7.30;;;6.70;;
41466;SDS011;72625;53.700;19.958;2023-10-31T05:15:18;7.40;;;6.80;;
41466;SDS011;72625;53.700;19.958;2023-10-31T05:20:22;7.20;;;6.70;;
41466;SDS011;72625;53.700;19.958;2023-10-31T05:25:25;9.20;;;7.10;;
41466;SDS011;72625;53.700;19.958;2023-10-31T05:30:28;7.50;;;6.80;;
41466;SDS011;72625;53.700;19.958;2023-10-31T05:35:32;8.60;;;7.70;;
41466;SDS011;72625;53.700;19.958;2023-10-31T05:40:36;8.20;;;7.40;;
41466;SDS011;72625;53.700;19.958;2023-10-31T05:45:40;8.70;;;6.30;;
41466;SDS011;72625;53.700;19.958;2023-10-31T05:50:46;17.90;;;16.40;;
41466;SDS011;72625;53.700;19.958;2023-10-31T05:55:49;14.60;;;13.30;;
41466;SDS011;72625;53.700;19.958;2023-10-31T06:00:52;11.10;;;10.20;;
41466;SDS011;72625;53.700;19.958;2023-10-31T06:05:56;7.20;;;6.50;;
41466;SDS011;72625;53.700;19.958;2023-10-31T06:11:00;9.70;;;7.00;;
41466;SDS011;72625;53.700;19.958;2023-10-31T06:16:04;7.00;;;6.40;;
41466;SDS011;72625;53.700;19.958;2023-10-31T06:21:07;7.10;;;6.30;;
41466;SDS011;72625;53.700;19.958;2023-10-31T06:26:13;6.90;;;6.20;;
41466;SDS011;72625;53.700;19.958;2023-10-31T06:31:17;7.10;;;6.50;;
41466;SDS011;72625;53.700;19.958;2023-10-31T06:36:20;7.70;;;6.40;;
41466;SDS011;72625;53.700;19.958;2023-10-31T06:41:23;5.40;;;5.00;;
41466;SDS011;72625;53.700;19.958;2023-10-31T06:46:27;6.70;;;6.10;;
41466;SDS011;72625;53.700;19.958;2023-10-31T06:51:30;6.50;;;5.80;;
41466;SDS011;72625;53.700;19.958;2023-10-31T06:56:33;8.80;;;6.30;;
41466;SDS011;72625;53.700;19.958;2023-10-31T07:01:37;6.10;;;5.60;;
41466;SDS011;72625;53.700;19.958;2023-10-31T07:06:40;6.00;;;5.40;;
41466;SDS011;72625;53.700;19.958;2023-10-31T07:11:43;5.20;;;4.70;;
41466;SDS011;72625;53.700;19.958;2023-10-31T07:16:47;8.50;;;7.80;;
41466;SDS011;72625;53.700;19.958;2023-10-31T07:21:51;6.70;;;5.80;;
41466;SDS011;72625;53.700;19.958;2023-10-31T07:26:55;6.70;;;6.10;;
41466;SDS011;72625;53.700;19.958;2023-10-31T07:31:58;13.70;;;12.60;;
41466;SDS011;72625;53.700;19.958;2023-10-31T07:37:02;8.20;;;7.50;;
41466;SDS011;72625;53.700;19.958;2023-10-31T07:42:05;5.70;;;5.20;;
41466;SDS011;72625;53.700;19.958;2023-10-31T07:47:09;5.60;;;5.10;;
41466;SDS011;72625;53.700;19.958;2023-10-31T07:52:12;17.20;;;15.40;;
41466;SDS011;72625;53.700;19.958;2023-10-31T07:57:15;7.00;;;6.40;;
41466;SDS011;72625;53.700;19.958;2023-10-31T08:02:18;9.00;;;7.90;;
41466;SDS011;72625;53.700;19.958;2023-10-31T08:07:22;7.90;;;5.80;;
41466;SDS011;72625;53.700;19.958;2023-10-31T08:12:26;4.90;;;4.40;;
41466;SDS011;72625;53.700;19.958;2023-10-31T08:17:30;5.70;;;5.20;;
41466;SDS011;72625;53.700;19.958;2023-10-31T08:22:34;5.90;;;5.30;;
41466;SDS011;72625;53.700;19.958;2023-10-31T08:27:38;4.20;;;3.70;;
41466;SDS011;72625;53.700;19.958;2023-10-31T08:32:41;6.30;;;4.80;;
41466;SDS011;72625;53.700;19.958;2023-10-31T08:37:44;5.50;;;5.20;;
41466;SDS011;72625;53.700;19.958;2023-10-31T08:42:48;5.30;;;4.80;;
41466;SDS011;72625;53.700;19.958;2023-10-31T08:47:51;8.20;;;4.50;;
41466;SDS011;72625;53.700;19.958;2023-10-31T08:52:54;6.40;;;5.00;;
41466;SDS011;72625;53.700;19.958;2023-10-31T08:57:57;4.10;;;3.70;;
41466;SDS011;72625;53.700;19.958;2023-10-31T09:03:01;6.80;;;4.40;;
41466;SDS011;72625;53.700;19.958;2023-10-31T09:08:04;9.20;;;4.40;;
41466;SDS011;72625;53.700;19.958;2023-10-31T09:13:08;3.70;;;3.30;;
41466;SDS011;72625;53.700;19.958;2023-10-31T09:18:12;4.50;;;3.90;;
41466;SDS011;72625;53.700;19.958;2023-10-31T09:23:16;5.10;;;3.70;;
41466;SDS011;72625;53.700;19.958;2023-10-31T09:28:20;5.60;;;4.40;;
41466;SDS011;72625;53.700;19.958;2023-10-31T09:33:23;4.60;;;3.20;;
41466;SDS011;72625;53.700;19.958;2023-10-31T09:38:26;2.80;;;2.40;;
41466;SDS011;72625;53.700;19.958;2023-10-31T09:43:30;3.20;;;2.60;;
41466;SDS011;72625;53.700;19.958;2023-10-31T09:48:34;4.80;;;2.80;;
41466;SDS011;72625;53.700;19.958;2023-10-31T09:53:37;3.90;;;3.50;;
41466;SDS011;72625;53.700;19.958;2023-10-31T09:58:44;6.70;;;2.70;;
41466;SDS011;72625;53.700;19.958;2023-10-31T10:03:47;4.50;;;2.40;;
41466;SDS011;72625;53.700;19.958;2023-10-31T10:08:51;4.50;;;2.90;;
41466;SDS011;72625;53.700;19.958;2023-10-31T10:13:56;3.00;;;2.50;;
41466;SDS011;72625;53.700;19.958;2023-10-31T10:19:16;3.80;;;2.90;;
41466;SDS011;72625;53.700;19.958;2023-10-31T10:24:25;3.20;;;2.70;;
41466;SDS011;72625;53.700;19.958;2023-10-31T10:29:28;3.40;;;3.10;;
41466;SDS011;72625;53.700;19.958;2023-10-31T10:34:31;4.80;;;3.60;;
41466;SDS011;72625;53.700;19.958;2023-10-31T10:39:34;3.30;;;3.00;;
41466;SDS011;72625;53.700;19.958;2023-10-31T10:44:43;2.70;;;2.50;;
41466;SDS011;72625;53.700;19.958;2023-10-31T10:49:47;4.10;;;2.90;;
41466;SDS011;72625;53.700;19.958;2023-10-31T10:55:00;2.80;;;2.60;;
41466;SDS011;72625;53.700;19.958;2023-10-31T11:00:07;3.60;;;3.20;;
41466;SDS011;72625;53.700;19.958;2023-10-31T11:05:15;4.20;;;3.80;;
41466;SDS011;72625;53.700;19.958;2023-10-31T11:10:18;3.50;;;2.70;;
41466;SDS011;72625;53.700;19.958;2023-10-31T11:15:22;4.90;;;3.40;;
41466;SDS011;72625;53.700;19.958;2023-10-31T11:20:26;3.50;;;3.20;;
41466;SDS011;72625;53.700;19.958;2023-10-31T11:25:32;2.70;;;2.50;;
41466;SDS011;72625;53.700;19.958;2023-10-31T11:35:39;2.30;;;2.10;;
41466;SDS011;72625;53.700;19.958;2023-10-31T11:46:02;2.50;;;2.20;;
41466;SDS011;72625;53.700;19.958;2023-10-31T11:51:06;2.10;;;1.90;;
41466;SDS011;72625;53.700;19.958;2023-10-31T11:56:09;1.90;;;1.80;;
41466;SDS011;72625;53.700;19.958;2023-10-31T12:01:14;2.30;;;2.10;;
41466;SDS011;72625;53.700;19.958;2023-10-31T12:06:18;3.10;;;2.90;;
41466;SDS011;72625;53.700;19.958;2023-10-31T12:11:23;3.40;;;3.10;;
41466;SDS011;72625;53.700;19.958;2023-10-31T12:16:27;3.90;;;3.70;;
41466;SDS011;72625;53.700;19.958;2023-10-31T12:21:45;4.10;;;3.80;;
41466;SDS011;72625;53.700;19.958;2023-10-31T12:26:50;3.00;;;2.80;;
41466;SDS011;72625;53.700;19.958;2023-10-31T12:31:54;2.70;;;2.50;;
41466;SDS011;72625;53.700;19.958;2023-10-31T12:37:01;3.60;;;3.30;;
41466;SDS011;72625;53.700;19.958;2023-10-31T12:42:06;3.30;;;3.10;;
41466;SDS011;72625;53.700;19.958;2023-10-31T12:47:09;3.30;;;3.10;;
41466;SDS011;72625;53.700;19.958;2023-10-31T12:52:13;3.30;;;3.10;;
41466;SDS011;72625;53.700;19.958;2023-10-31T12:57:16;3.00;;;2.80;;
41466;SDS011;72625;53.700;19.958;2023-10-31T13:02:19;4.40;;;4.10;;
41466;SDS011;72625;53.700;19.958;2023-10-31T13:07:26;4.10;;;3.90;;
41466;SDS011;72625;53.700;19.958;2023-10-31T13:12:30;5.40;;;5.10;;
41466;SDS011;72625;53.700;19.958;2023-10-31T13:22:41;6.70;;;6.20;;
41466;SDS011;72625;53.700;19.958;2023-10-31T13:27:45;6.60;;;6.10;;
41466;SDS011;72625;53.700;19.958;2023-10-31T13:32:54;5.10;;;4.80;;
41466;SDS011;72625;53.700;19.958;2023-10-31T13:37:57;6.00;;;5.50;;
41466;SDS011;72625;53.700;19.958;2023-10-31T13:43:00;6.40;;;5.90;;
41466;SDS011;72625;53.700;19.958;2023-10-31T13:48:03;5.60;;;5.20;;
41466;SDS011;72625;53.700;19.958;2023-10-31T13:53:07;5.20;;;4.80;;
41466;SDS011;72625;53.700;19.958;2023-10-31T13:58:10;5.50;;;5.10;;
41466;SDS011;72625;53.700;19.958;2023-10-31T14:03:14;4.00;;;3.80;;
41466;SDS011;72625;53.700;19.958;2023-10-31T14:08:18;4.70;;;4.30;;
41466;SDS011;72625;53.700;19.958;2023-10-31T14:13:23;3.90;;;3.60;;
41466;SDS011;72625;53.700;19.958;2023-10-31T14:18:27;3.80;;;3.50;;
41466;SDS011;72625;53.700;19.958;2023-10-31T14:23:30;3.90;;;3.60;;
41466;SDS011;72625;53.700;19.958;2023-10-31T14:28:34;2.10;;;2.00;;
41466;SDS011;72625;53.700;19.958;2023-10-31T14:33:38;1.60;;;1.50;;
41466;SDS011;72625;53.700;19.958;2023-10-31T14:38:42;2.30;;;2.20;;
41466;SDS011;72625;53.700;19.958;2023-10-31T14:43:45;2.00;;;1.80;;
41466;SDS011;72625;53.700;19.958;2023-10-31T14:48:49;3.20;;;2.90;;
41466;SDS011;72625;53.700;19.958;2023-10-31T14:53:53;3.60;;;2.90;;
41466;SDS011;72625;53.700;19.958;2023-10-31T14:58:56;1.70;;;1.60;;
41466;SDS011;72625;53.700;19.958;2023-10-31T15:03:59;3.50;;;3.00;;
41466;SDS011;72625;53.700;19.958;2023-10-31T15:09:03;3.80;;;3.50;;
41466;SDS011;72625;53.700;19.958;2023-10-31T15:14:06;3.60;;;3.30;;
41466;SDS011;72625;53.700;19.958;2023-10-31T15:19:10;2.90;;;2.70;;
41466;SDS011;72625;53.700;19.958;2023-10-31T15:24:13;1.90;;;1.80;;
41466;SDS011;72625;53.700;19.958;2023-10-31T15:29:17;2.30;;;2.20;;
41466;SDS011;72625;53.700;19.958;2023-10-31T15:34:21;1.80;;;1.70;;
41466;SDS011;72625;53.700;19.958;2023-10-31T15:39:24;1.20;;;1.10;;
41466;SDS011;72625;53.700;19.958;2023-10-31T15:44:27;1.50;;;0.90;;
41466;SDS011;72625;53.700;19.958;2023-10-31T15:49:31;1.90;;;1.40;;
41466;SDS011;72625;53.700;19.958;2023-10-31T15:54:34;1.80;;;1.70;;
41466;SDS011;72625;53.700;19.958;2023-10-31T15:59:37;4.00;;;3.50;;
41466;SDS011;72625;53.700;19.958;2023-10-31T16:04:42;7.40;;;6.90;;
41466;SDS011;72625;53.700;19.958;2023-10-31T16:09:45;18.10;;;16.70;;
41466;SDS011;72625;53.700;19.958;2023-10-31T16:14:49;11.60;;;10.90;;
41466;SDS011;72625;53.700;19.958;2023-10-31T16:19:52;10.50;;;9.80;;
41466;SDS011;72625;53.700;19.958;2023-10-31T16:24:55;4.80;;;4.50;;
41466;SDS011;72625;53.700;19.958;2023-10-31T16:29:58;4.20;;;4.00;;
41466;SDS011;72625;53.700;19.958;2023-10-31T16:35:02;2.90;;;2.70;;
41466;SDS011;72625;53.700;19.958;2023-10-31T16:40:07;2.60;;;2.40;;
41466;SDS011;72625;53.700;19.958;2023-10-31T16:50:15;5.10;;;3.70;;
41466;SDS011;72625;53.700;19.958;2023-10-31T16:55:18;2.20;;;2.10;;
41466;SDS011;72625;53.700;19.958;2023-10-31T17:00:22;1.30;;;1.30;;
41466;SDS011;72625;53.700;19.958;2023-10-31T17:05:25;2.80;;;2.60;;
41466;SDS011;72625;53.700;19.958;2023-10-31T17:10:29;3.40;;;3.10;;
41466;SDS011;72625;53.700;19.958;2023-10-31T17:15:32;5.10;;;4.70;;
41466;SDS011;72625;53.700;19.958;2023-10-31T17:20:36;5.20;;;4.30;;
41466;SDS011;72625;53.700;19.958;2023-10-31T17:25:40;4.70;;;4.30;;
41466;SDS011;72625;53.700;19.958;2023-10-31T17:30:45;5.50;;;4.80;;
41466;SDS011;72625;53.700;19.958;2023-10-31T17:35:48;4.60;;;4.20;;
41466;SDS011;72625;53.700;19.958;2023-10-31T17:40:52;2.80;;;2.60;;
41466;SDS011;72625;53.700;19.958;2023-10-31T17:45:57;2.80;;;2.60;;
41466;SDS011;72625;53.700;19.958;2023-10-31T17:51:01;2.80;;;2.00;;
41466;SDS011;72625;53.700;19.958;2023-10-31T17:56:06;2.60;;;2.30;;
41466;SDS011;72625;53.700;19.958;2023-10-31T18:01:10;7.90;;;7.40;;
41466;SDS011;72625;53.700;19.958;2023-10-31T18:06:14;2.70;;;2.40;;
41466;SDS011;72625;53.700;19.958;2023-10-31T18:11:17;1.70;;;1.60;;
41466;SDS011;72625;53.700;19.958;2023-10-31T18:16:21;1.80;;;1.70;;
41466;SDS011;72625;53.700;19.958;2023-10-31T18:21:24;2.90;;;2.70;;
41466;SDS011;72625;53.700;19.958;2023-10-31T18:26:28;3.40;;;2.40;;
41466;SDS011;72625;53.700;19.958;2023-10-31T18:31:31;1.90;;;1.80;;
41466;SDS011;72625;53.700;19.958;2023-10-31T18:36:35;1.90;;;1.80;;
41466;SDS011;72625;53.700;19.958;2023-10-31T18:41:41;1.80;;;1.70;;
41466;SDS011;72625;53.700;19.958;2023-10-31T18:47:04;3.20;;;3.00;;
41466;SDS011;72625;53.700;19.958;2023-10-31T18:52:08;2.60;;;2.50;;
41466;SDS011;72625;53.700;19.958;2023-10-31T18:57:12;2.60;;;2.50;;
41466;SDS011;72625;53.700;19.958;2023-10-31T19:02:15;2.50;;;2.20;;
41466;SDS011;72625;53.700;19.958;2023-10-31T19:07:19;2.70;;;2.60;;
41466;SDS011;72625;53.700;19.958;2023-10-31T19:12:22;2.20;;;2.10;;
41466;SDS011;72625;53.700;19.958;2023-10-31T19:17:25;3.40;;;3.20;;
41466;SDS011;72625;53.700;19.958;2023-10-31T19:22:29;3.20;;;3.00;;
41466;SDS011;72625;53.700;19.958;2023-10-31T19:27:32;5.90;;;5.50;;
41466;SDS011;72625;53.700;19.958;2023-10-31T19:32:35;2.90;;;2.70;;
41466;SDS011;72625;53.700;19.958;2023-10-31T19:37:39;3.20;;;3.00;;
41466;SDS011;72625;53.700;19.958;2023-10-31T19:42:47;3.70;;;3.40;;
41466;SDS011;72625;53.700;19.958;2023-10-31T19:47:51;3.30;;;3.00;;
41466;SDS011;72625;53.700;19.958;2023-10-31T19:52:55;3.10;;;2.80;;
41466;SDS011;72625;53.700;19.958;2023-10-31T19:57:59;2.30;;;2.20;;
41466;SDS011;72625;53.700;19.958;2023-10-31T20:03:03;3.20;;;2.70;;
41466;SDS011;72625;53.700;19.958;2023-10-31T20:08:06;2.60;;;2.50;;
41466;SDS011;72625;53.700;19.958;2023-10-31T20:13:10;2.50;;;2.30;;
41466;SDS011;72625;53.700;19.958;2023-10-31T20:23:18;2.30;;;2.00;;
41466;SDS011;72625;53.700;19.958;2023-10-31T20:28:21;2.80;;;2.60;;
41466;SDS011;72625;53.700;19.958;2023-10-31T20:33:24;2.20;;;2.00;;
41466;SDS011;72625;53.700;19.958;2023-10-31T20:38:28;2.90;;;2.70;;
41466;SDS011;72625;53.700;19.958;2023-10-31T20:43:31;2.50;;;1.90;;
41466;SDS011;72625;53.700;19.958;2023-10-31T20:48:35;1.70;;;1.60;;
41466;SDS011;72625;53.700;19.958;2023-10-31T20:53:39;1.40;;;1.30;;
41466;SDS011;72625;53.700;19.958;2023-10-31T20:58:42;1.70;;;1.60;;
41466;SDS011;72625;53.700;19.958;2023-10-31T21:08:50;2.10;;;1.90;;
41466;SDS011;72625;53.700;19.958;2023-10-31T21:13:54;1.50;;;1.40;;
41466;SDS011;72625;53.700;19.958;2023-10-31T21:18:58;1.70;;;1.60;;
41466;SDS011;72625;53.700;19.958;2023-10-31T21:24:02;1.30;;;1.20;;
41466;SDS011;72625;53.700;19.958;2023-10-31T21:29:06;1.20;;;1.10;;
41466;SDS011;72625;53.700;19.958;2023-10-31T21:34:10;3.30;;;1.30;;
41466;SDS011;72625;53.700;19.958;2023-10-31T21:39:17;1.50;;;1.20;;
41466;SDS011;72625;53.700;19.958;2023-10-31T21:44:22;1.30;;;1.20;;
41466;SDS011;72625;53.700;19.958;2023-10-31T21:49:29;1.00;;;0.90;;
41466;SDS011;72625;53.700;19.958;2023-10-31T21:54:32;2.00;;;1.90;;
41466;SDS011;72625;53.700;19.958;2023-10-31T21:59:35;1.90;;;1.50;;
41466;SDS011;72625;53.700;19.958;2023-10-31T22:04:39;1.80;;;1.70;;
41466;SDS011;72625;53.700;19.958;2023-10-31T22:09:42;1.60;;;1.50;;
41466;SDS011;72625;53.700;19.958;2023-10-31T22:14:45;1.40;;;1.30;;
41466;SDS011;72625;53.700;19.958;2023-10-31T22:19:49;1.40;;;1.10;;
41466;SDS011;72625;53.700;19.958;2023-10-31T22:24:52;2.00;;;0.90;;
41466;SDS011;72625;53.700;19.958;2023-10-31T22:29:56;1.00;;;0.70;;
41466;SDS011;72625;53.700;19.958;2023-10-31T22:34:59;0.60;;;0.60;;
41466;SDS011;72625;53.700;19.958;2023-10-31T22:40:02;0.70;;;0.70;;
41466;SDS011;72625;53.700;19.958;2023-10-31T22:45:07;0.70;;;0.70;;
41466;SDS011;72625;53.700;19.958;2023-10-31T22:50:11;0.70;;;0.60;;
41466;SDS011;72625;53.700;19.958;2023-10-31T22:55:15;0.50;;;0.40;;
41466;SDS011;72625;53.700;19.958;2023-10-31T23:00:19;0.90;;;0.70;;
41466;SDS011;72625;53.700;19.958;2023-10-31T23:05:29;0.30;;;0.30;;
41466;SDS011;72625;53.700;19.958;2023-10-31T23:10:34;0.40;;;0.40;;
41466;SDS011;72625;53.700;19.958;2023-10-31T23:15:37;0.30;;;0.30;;
41466;SDS011;72625;53.700;19.958;2023-10-31T23:25:45;0.70;;;0.50;;
41466;SDS011;72625;53.700;19.958;2023-10-31T23:30:49;0.70;;;0.60;;
41466;SDS011;72625;53.700;19.958;2023-10-31T23:36:00;0.40;;;0.40;;
41466;SDS011;72625;53.700;19.958;2023-10-31T23:41:03;0.90;;;0.30;;
41466;SDS011;72625;53.700;19.958;2023-10-31T23:46:07;1.90;;;0.50;;
41466;SDS011;72625;53.700;19.958;2023-10-31T23:51:11;2.80;;;0.40;;
41466;SDS011;72625;53.700;19.958;2023-10-31T23:56:14;0.30;;;0.20;;
